createdAt,value
2022-09-25T00:02:08.429Z,26.48
2022-09-25T00:06:27.972Z,24.52
2022-09-25T00:10:48.373Z,24.85
2022-09-25T00:15:08.590Z,24.98
2022-09-25T00:19:44.637Z,22.55
2022-09-25T00:24:07.562Z,23.70
2022-09-25T00:28:24.744Z,26.05
2022-09-25T00:32:42.121Z,24.77
2022-09-25T00:36:59.337Z,25.88
2022-09-25T00:41:21.863Z,25.08
2022-09-25T00:45:39.529Z,23.45
2022-09-25T00:49:59.937Z,25.52
2022-09-25T00:54:22.466Z,22.73
2022-09-25T00:58:41.031Z,23.05
2022-09-25T01:02:58.745Z,22.75
2022-09-25T01:07:16.751Z,21.83
2022-09-25T01:11:34.617Z,22.42
2022-09-25T01:16:24.086Z,22.45
2022-09-25T01:20:50.624Z,22.42
2022-09-25T01:25:30.535Z,23.80
2022-09-25T01:30:19.656Z,22.05
2022-09-25T01:35:15.351Z,23.23
2022-09-25T01:39:38.966Z,24.90
2022-09-25T01:44:36.821Z,22.65
2022-09-25T01:48:58.037Z,23.15
2022-09-25T01:53:23.376Z,20.73
2022-09-25T01:58:10.961Z,20.67
2022-09-25T02:02:35.201Z,22.15
2022-09-25T02:06:55.481Z,21.55
2022-09-25T02:11:14.030Z,20.73
2022-09-25T02:15:35.113Z,20.33
2022-09-25T02:20:11.051Z,21.30
2022-09-25T02:24:58.462Z,18.58
2022-09-25T02:29:17.274Z,20.30
2022-09-25T02:33:35.221Z,19.30
2022-09-25T02:37:56.155Z,22.38
2022-09-25T02:42:40.967Z,21.02
2022-09-25T02:47:24.247Z,24.17
2022-09-25T02:51:56.598Z,24.73
2022-09-25T02:56:44.878Z,24.48
2022-09-25T03:01:05.766Z,23.20
2022-09-25T03:05:24.986Z,22.15
2022-09-25T03:09:46.859Z,24.08
2022-09-25T03:14:04.572Z,24.52
2022-09-25T03:18:22.295Z,22.17
2022-09-25T03:22:39.572Z,24.55
2022-09-25T03:26:56.936Z,23.95
2022-09-25T03:31:14.254Z,22.83
2022-09-25T03:35:31.457Z,24.15
2022-09-25T03:39:48.610Z,25.83
2022-09-25T03:44:05.833Z,28.98
2022-09-25T03:48:23.035Z,26.38
2022-09-25T03:52:40.988Z,31.17
2022-09-25T03:56:58.080Z,27.38
2022-09-25T04:01:15.934Z,30.42
2022-09-25T04:05:33.121Z,33.60
2022-09-25T04:09:50.782Z,38.50
2022-09-25T04:14:07.890Z,33.42
2022-09-25T04:18:25.394Z,29.55
2022-09-25T04:22:42.519Z,30.45
2022-09-25T04:27:00.516Z,29.83
2022-09-25T04:31:17.663Z,29.57
2022-09-25T04:35:34.991Z,31.85
2022-09-25T04:39:56.922Z,33.17
2022-09-25T04:44:14.103Z,39.80
2022-09-25T04:48:32.262Z,39.58
2022-09-25T04:52:51.333Z,32.63
2022-09-25T04:57:32.713Z,38.30
2022-09-25T05:01:53.259Z,42.88
2022-09-25T05:06:10.498Z,41.10
2022-09-25T05:10:30.297Z,36.28
2022-09-25T05:14:47.699Z,36.38
2022-09-25T05:19:04.835Z,49.67
2022-09-25T05:23:24.017Z,38.90
2022-09-25T05:27:41.346Z,38.85
2022-09-25T05:31:58.527Z,45.95
2022-09-25T05:36:18.737Z,38.22
2022-09-25T05:40:37.386Z,35.28
2022-09-25T05:44:54.541Z,37.65
2022-09-25T05:49:11.636Z,40.53
2022-09-25T05:53:30.522Z,47.80
2022-09-25T06:02:04.868Z,44.15
2022-09-25T06:06:26.720Z,48.60
2022-09-25T06:10:44.668Z,32.72
2022-09-25T06:15:01.763Z,34.20
2022-09-25T06:19:18.888Z,33.85
2022-09-25T06:23:36.004Z,32.75
2022-09-25T06:27:57.607Z,31.40
2022-09-25T06:32:16.947Z,28.00
2022-09-25T06:36:34.277Z,30.10
2022-09-25T06:40:51.393Z,30.77
2022-09-25T06:45:10.857Z,28.23
2022-09-25T06:49:28.055Z,27.35
2022-09-25T06:53:45.209Z,27.33
2022-09-25T06:58:04.329Z,27.95
2022-09-25T07:02:40.239Z,26.83
2022-09-25T07:06:59.044Z,29.02
2022-09-25T07:11:21.565Z,29.80
2022-09-25T07:15:39.294Z,27.77
2022-09-25T07:19:56.602Z,28.60
2022-09-25T07:24:13.784Z,26.73
2022-09-25T07:28:30.998Z,24.15
2022-09-25T07:32:48.139Z,22.58
2022-09-25T07:37:05.256Z,22.45
2022-09-25T07:41:23.614Z,29.92
2022-09-25T07:45:41.351Z,26.95
2022-09-25T07:49:58.961Z,22.90
2022-09-25T07:54:16.284Z,27.55
2022-09-25T07:58:35.065Z,22.15
2022-09-25T08:07:13.137Z,23.05
2022-09-25T08:11:31.182Z,25.80
2022-09-25T08:15:48.796Z,24.98
2022-09-25T08:20:07.113Z,26.85
2022-09-25T08:24:24.222Z,26.45
2022-09-25T08:28:41.856Z,27.15
2022-09-25T08:32:59.108Z,24.25
2022-09-25T08:37:17.106Z,25.20
2022-09-25T08:41:50.605Z,24.10
2022-09-25T08:46:37.382Z,23.55
2022-09-25T08:50:54.668Z,23.60
2022-09-25T08:55:58.690Z,24.98
2022-09-25T09:00:23.813Z,22.58
2022-09-25T09:04:56.451Z,24.38
2022-09-25T09:09:27.284Z,22.45
2022-09-25T09:13:53.300Z,22.00
2022-09-25T09:18:27.360Z,23.33
2022-09-25T09:22:53.248Z,21.08
2022-09-25T09:27:30.696Z,21.83
2022-09-25T09:31:58.742Z,22.30
2022-09-25T09:36:40.844Z,21.00
2022-09-25T09:41:12.932Z,21.67
2022-09-25T09:45:54.147Z,20.77
2022-09-25T09:50:41.826Z,16.95
2022-09-25T09:55:24.857Z,19.00
2022-09-25T10:00:06.712Z,20.30
2022-09-25T10:04:29.990Z,17.88
2022-09-25T10:08:47.144Z,18.02
2022-09-25T10:13:17.665Z,18.23
2022-09-25T10:17:37.875Z,18.85
2022-09-25T10:22:16.356Z,17.85
2022-09-25T10:26:36.899Z,17.30
2022-09-25T10:30:55.169Z,17.17
2022-09-25T10:35:18.796Z,15.35
2022-09-25T10:39:45.202Z,15.63
2022-09-25T10:44:03.276Z,15.98
2022-09-25T10:48:54.415Z,15.10
2022-09-25T10:53:30.398Z,14.70
2022-09-25T10:57:48.651Z,14.95
2022-09-25T11:02:20.013Z,16.87
2022-09-25T11:06:47.676Z,15.00
2022-09-25T11:11:09.265Z,13.98
2022-09-25T11:15:27.628Z,11.77
2022-09-25T11:19:44.770Z,13.20
2022-09-25T11:24:17.374Z,11.15
2022-09-25T11:28:44.562Z,10.95
2022-09-25T11:33:10.776Z,12.75
2022-09-25T11:37:49.652Z,12.35
2022-09-25T11:42:18.352Z,11.27
2022-09-25T11:46:51.565Z,11.25
2022-09-25T11:51:47.599Z,10.38
2022-09-25T11:56:33.247Z,10.18
2022-09-25T12:01:34.954Z,10.32
2022-09-25T12:06:13.475Z,9.02
2022-09-25T12:10:59.250Z,9.77
2022-09-25T12:15:43.065Z,9.05
2022-09-25T12:20:27.768Z,10.10
2022-09-25T12:25:11.433Z,7.70
2022-09-25T12:30:06.700Z,8.77
2022-09-25T12:34:33.021Z,7.90
2022-09-25T12:39:25.567Z,8.95
2022-09-25T12:43:56.311Z,9.88
2022-09-25T12:48:19.284Z,10.82
2022-09-25T12:52:42.308Z,9.13
2022-09-25T12:57:13.858Z,9.43
2022-09-25T13:01:45.385Z,10.52
2022-09-25T13:06:09.172Z,8.43
2022-09-25T13:10:54.059Z,9.85
2022-09-25T13:15:24.020Z,9.40
2022-09-25T13:19:41.444Z,8.80
2022-09-25T13:24:00.216Z,9.50
2022-09-25T13:28:26.295Z,9.43
2022-09-25T13:32:49.049Z,7.97
2022-09-25T13:37:09.995Z,8.30
2022-09-25T13:41:29.911Z,6.90
2022-09-25T13:45:48.604Z,8.45
2022-09-25T13:50:11.622Z,7.15
2022-09-25T13:54:28.795Z,8.32
2022-09-25T13:59:16.037Z,8.68
2022-09-25T14:03:44.016Z,8.73
2022-09-25T14:08:11.509Z,10.10
2022-09-25T14:12:42.406Z,9.15
2022-09-25T14:17:00.328Z,10.20
2022-09-25T14:21:20.112Z,7.45
2022-09-25T14:25:38.940Z,8.57
2022-09-25T14:30:13.854Z,7.57
2022-09-25T14:35:09.789Z,8.02
2022-09-25T14:39:37.169Z,7.13
2022-09-25T14:44:35.990Z,7.68
2022-09-25T14:49:16.385Z,6.65
2022-09-25T14:53:50.643Z,6.07
2022-09-25T14:58:10.184Z,6.10
2022-09-25T15:02:37.253Z,6.55
2022-09-25T15:07:01.551Z,6.65
2022-09-25T15:11:20.431Z,7.20
2022-09-25T15:19:59.005Z,7.20
2022-09-25T15:24:20.479Z,7.32
2022-09-25T15:28:41.251Z,7.07
2022-09-25T15:33:01.036Z,7.18
2022-09-25T15:37:27.577Z,8.90
2022-09-25T15:41:45.033Z,8.90
2022-09-25T15:46:07.925Z,9.77
2022-09-25T15:50:27.777Z,11.02
2022-09-25T15:54:46.211Z,10.05
2022-09-25T15:59:14.840Z,7.43
2022-09-25T16:03:50.866Z,4.27
2022-09-25T16:08:32.029Z,4.05
2022-09-25T16:12:50.467Z,3.40
2022-09-25T16:17:17.109Z,2.60
2022-09-25T16:21:39.505Z,2.45
2022-09-25T16:25:58.506Z,2.30
2022-09-25T16:30:18.276Z,2.50
2022-09-25T16:34:38.624Z,2.40
2022-09-25T16:39:07.858Z,2.70
2022-09-25T16:47:48.338Z,3.33
2022-09-25T16:52:08.500Z,3.70
2022-09-25T16:56:29.511Z,3.35
2022-09-25T17:00:46.745Z,3.95
2022-09-25T17:05:18.787Z,3.17
2022-09-25T17:09:36.027Z,3.72
2022-09-25T17:13:53.367Z,3.72
2022-09-25T17:18:21.401Z,4.47
2022-09-25T17:22:39.043Z,4.60
2022-09-25T17:26:56.368Z,4.40
2022-09-25T17:31:20.055Z,4.20
2022-09-25T17:35:44.837Z,3.60
2022-09-25T17:40:03.601Z,4.22
2022-09-25T17:44:23.530Z,4.32
2022-09-25T17:48:40.745Z,4.50
2022-09-25T17:52:58.927Z,4.80
2022-09-25T17:57:16.064Z,4.80
2022-09-25T18:01:39.221Z,4.25
2022-09-25T18:05:57.899Z,5.75
2022-09-25T18:10:15.180Z,8.07
2022-09-25T18:14:34.081Z,8.10
2022-09-25T18:23:26.920Z,9.52
2022-09-25T18:27:44.572Z,8.70
2022-09-25T18:32:02.003Z,6.95
2022-09-25T18:36:19.165Z,9.50
2022-09-25T18:40:36.732Z,9.30
2022-09-25T18:44:53.971Z,18.70
2022-09-25T18:49:11.279Z,16.08
2022-09-25T18:53:29.338Z,17.08
2022-09-25T18:57:46.787Z,19.33
2022-09-25T19:02:04.122Z,17.50
2022-09-25T19:06:21.506Z,18.73
2022-09-25T19:10:38.685Z,17.77
2022-09-25T19:14:55.798Z,17.02
2022-09-25T19:19:13.541Z,16.70
2022-09-25T19:23:34.991Z,18.92
2022-09-25T19:27:52.132Z,16.58
2022-09-25T19:32:11.119Z,17.75
2022-09-25T19:40:48.681Z,31.10
2022-09-25T19:45:06.758Z,28.92
2022-09-25T19:49:23.877Z,29.10
2022-09-25T19:53:41.426Z,44.15
2022-09-25T19:57:58.579Z,35.42
2022-09-25T20:02:15.829Z,52.55
2022-09-25T20:06:36.703Z,46.10
2022-09-25T20:10:53.872Z,41.97
2022-09-25T20:15:11.049Z,35.47
2022-09-25T20:19:28.390Z,37.42
2022-09-25T20:23:49.445Z,42.53
2022-09-25T20:28:06.592Z,36.58
2022-09-25T20:32:23.743Z,38.15
2022-09-25T20:36:41.108Z,40.22
2022-09-25T20:41:00.221Z,47.72
2022-09-25T20:45:17.670Z,41.33
2022-09-25T20:49:35.331Z,54.85
2022-09-25T20:53:54.496Z,42.00
2022-09-25T20:58:11.674Z,46.67
2022-09-25T21:02:29.397Z,36.92
2022-09-25T21:06:46.743Z,43.13
2022-09-25T21:11:04.315Z,39.67
2022-09-25T21:15:21.598Z,40.80
2022-09-25T21:19:40.071Z,42.78
2022-09-25T21:23:58.340Z,36.90
2022-09-25T21:28:15.447Z,59.40
2022-09-25T21:32:32.607Z,50.00
2022-09-25T21:36:49.803Z,43.72
2022-09-25T21:41:08.931Z,43.42
2022-09-25T21:45:26.091Z,39.92
2022-09-25T21:49:43.220Z,42.55
2022-09-25T21:54:01.174Z,40.08
2022-09-25T21:58:18.426Z,37.37
2022-09-25T22:02:35.553Z,43.40
2022-09-25T22:06:52.695Z,36.78
2022-09-25T22:11:11.689Z,40.20
2022-09-25T22:15:28.848Z,39.10
2022-09-25T22:19:45.982Z,46.35
2022-09-25T22:24:04.787Z,41.20
2022-09-25T22:28:22.130Z,35.45
2022-09-25T22:32:39.270Z,37.63
2022-09-25T22:36:59.978Z,42.70
2022-09-25T22:41:17.337Z,37.38
2022-09-25T22:45:34.566Z,44.08
2022-09-25T22:49:51.744Z,45.72
2022-09-25T22:54:13.692Z,40.13
2022-09-25T22:58:30.850Z,36.78
2022-09-25T23:02:47.988Z,39.33
2022-09-25T23:07:05.134Z,42.92
2022-09-25T23:11:23.923Z,43.67
2022-09-25T23:15:41.042Z,38.22
2022-09-25T23:19:58.211Z,36.63
2022-09-25T23:24:18.659Z,32.53
2022-09-25T23:28:37.742Z,31.23
2022-09-25T23:32:54.971Z,29.95
2022-09-25T23:37:13.628Z,42.88
2022-09-25T23:41:34.403Z,31.55
2022-09-25T23:45:51.822Z,32.85
2022-09-25T23:50:09.348Z,32.90
2022-09-25T23:54:26.752Z,32.80
2022-09-25T23:58:44.329Z,36.25
